Time;durP1;ratioP1;P1;durP2;ratioP2;P2;SDS_P1;SDS_P2;PMS_P1;PMS_P2;Temp;Humidity;BMP_temperature;BMP_pressure;BME280_temperature;BME280_humidity;BME280_pressure;Samples;Min_cycle;Max_cycle;Signal;HPM_P1;HPM_P2
2022/01/19 05:48:11;;;;;;;4.22;2.47;;;;;;;-6.01;74.09;100726.06;1698712;83;21162;-36
2022/01/19 05:50:40;;;;;;;5.83;2.35;;;;;;;-6.07;74.51;100738.36;1687633;84;21146;-37
2022/01/19 05:53:09;;;;;;;6.55;2.72;;;;;;;-6.07;74.51;100738.36;1690563;84;21087;-43
2022/01/19 05:55:36;;;;;;;6.85;2.92;;;;;;;-6.06;74.84;100735.42;1683393;84;21074;-37
2022/01/19 05:58:03;;;;;;;6.15;3.05;;;;;;;-5.99;75.01;100745.28;1685623;84;21057;-37
2022/01/19 06:00:31;;;;;;;6.15;2.65;;;;;;;-5.94;75.02;100746.50;1671230;84;21025;-44
2022/01/19 06:02:57;;;;;;;6.65;3.60;;;;;;;-5.89;74.99;100749.84;1674425;84;21124;-38
2022/01/19 06:05:26;;;;;;;7.67;3.45;;;;;;;-5.82;75.09;100742.64;1674104;84;21013;-44
2022/01/19 06:08:17;;;;;;;4.87;2.87;;;;;;;-5.76;75.00;100747.79;1678955;84;21699;-44
2022/01/19 06:10:44;;;;;;;6.30;2.58;;;;;;;-5.68;74.81;100738.16;1668956;84;21021;-38
2022/01/19 06:13:16;;;;;;;5.87;3.83;;;;;;;-5.64;74.55;100741.41;1682228;84;21066;-43
2022/01/19 06:15:44;;;;;;;3.52;2.02;;;;;;;-5.64;74.20;100731.20;1675256;84;21010;-37
2022/01/19 06:18:11;;;;;;;5.80;1.98;;;;;;;-5.66;74.13;100734.93;1673400;84;21537;-44
2022/01/19 06:20:38;;;;;;;6.12;2.42;;;;;;;-5.70;73.64;100734.59;1669733;84;21447;-43
2022/01/19 06:23:05;;;;;;;5.55;2.45;;;;;;;-5.78;73.75;100735.72;1706188;82;21065;-37
2022/01/19 06:25:33;;;;;;;7.65;2.75;;;;;;;-5.83;73.52;100742.15;1710652;81;21054;-43
2022/01/19 06:28:00;;;;;;;6.53;2.55;;;;;;;-5.87;73.66;100740.14;1709435;82;21603;-43
2022/01/19 06:30:27;;;;;;;5.85;2.80;;;;;;;-5.89;73.74;100741.32;1706780;82;21528;-36
2022/01/19 06:33:00;;;;;;;7.72;2.55;;;;;;;-5.90;73.73;100744.65;1710226;82;21121;-42
2022/01/19 06:35:45;;;;;;;5.40;2.17;;;;;;;-5.93;73.55;100752.09;1708384;82;20991;-36
2022/01/19 06:49:08;;;;;;;11.60;4.47;;;;;;;-6.01;73.72;100759.58;1707659;81;21536;-36
2022/01/19 06:52:12;;;;;;;8.25;4.10;;;;;;;-6.04;74.07;100758.06;1706239;82;21052;-37
2022/01/19 06:55:57;;;;;;;11.35;4.15;;;;;;;-6.00;74.16;100766.45;1704723;82;21457;-42
2022/01/19 06:59:05;;;;;;;15.23;6.78;;;;;;;-5.99;74.35;100765.27;1704142;82;21061;-43
2022/01/19 07:02:34;;;;;;;7.70;2.67;;;;;;;-6.03;74.14;100774.77;1700755;82;21182;-43
2022/01/19 07:05:26;;;;;;;10.53;2.55;;;;;;;-6.03;74.54;100784.95;1704470;82;21014;-36
2022/01/19 07:09:11;;;;;;;3.75;2.00;;;;;;;-6.03;74.54;100784.95;1701578;82;21047;-42
2022/01/19 07:11:58;;;;;;;6.85;3.33;;;;;;;-5.96;74.11;100793.93;1704544;82;21055;-42
2022/01/19 07:14:38;;;;;;;18.57;5.22;;;;;;;-5.84;74.14;100788.42;1704107;82;21063;-36
2022/01/19 07:26:10;;;;;;;3.25;1.60;;;;;;;-5.69;73.66;100791.17;1701590;82;21059;-43
2022/01/19 07:36:29;;;;;;;1.65;1.27;;;;;;;-5.76;73.46;100806.41;1702345;82;20122;-44
2022/01/19 07:39:43;;;;;;;4.25;1.92;;;;;;;-5.78;73.14;100806.70;1708964;82;21040;-35
2022/01/19 07:42:40;;;;;;;5.55;2.47;;;;;;;-5.83;73.29;100805.48;1713319;82;21490;-36
2022/01/19 07:45:32;;;;;;;10.63;4.15;;;;;;;-5.82;73.63;100803.42;1714056;82;21467;-37
2022/01/19 07:48:23;;;;;;;5.05;2.17;;;;;;;-5.85;73.17;100801.94;1713154;81;21085;-43
2022/01/19 07:51:00;;;;;;;11.97;2.58;;;;;;;-5.95;72.88;100796.58;1729071;81;21507;-36
2022/01/19 07:53:45;;;;;;;12.82;4.20;;;;;;;-6.00;73.29;100793.20;1731842;81;21628;-43
2022/01/19 07:56:15;;;;;;;7.85;3.42;;;;;;;-6.02;73.56;100789.66;1717264;81;21067;-43
2022/01/19 07:58:56;;;;;;;8.18;4.28;;;;;;;-6.00;73.80;100795.36;1623383;86;21091;-37
2022/01/19 08:01:30;;;;;;;6.60;3.37;;;;;;;-5.94;73.55;100794.53;1621219;86;21071;-38
2022/01/19 08:05:00;;;;;;;3.20;1.75;;;;;;;-5.90;73.53;100785.42;1564804;88;21082;-42
2022/01/19 08:11:08;;;;;;;4.78;1.70;;;;;;;-5.84;73.31;100782.44;1574530;88;21142;-36
2022/01/19 08:18:55;;;;;;;8.65;3.25;;;;;;;-5.73;73.30;100777.34;1598967;87;21135;-37
2022/01/19 08:22:22;;;;;;;9.18;2.83;;;;;;;-5.59;72.59;100781.26;1579684;88;21046;-43
2022/01/19 08:26:15;;;;;;;7.33;2.95;;;;;;;-5.57;71.78;100775.48;1603034;87;21316;-43
2022/01/19 08:29:57;;;;;;;4.35;2.10;;;;;;;-5.52;72.08;100769.05;1609858;87;21069;-37
2022/01/19 08:32:56;;;;;;;4.97;1.92;;;;;;;-5.42;71.16;100784.23;1607707;87;21110;-43
2022/01/19 08:36:24;;;;;;;9.63;2.72;;;;;;;-5.45;71.03;100787.86;1635815;83;21604;-43
2022/01/19 08:47:39;;;;;;;4.67;2.40;;;;;;;-5.36;70.87;100806.34;1689966;83;21027;-43
2022/01/19 08:51:00;;;;;;;10.58;3.65;;;;;;;-5.22;70.74;100803.88;1679460;83;21165;-43
2022/01/19 08:54:30;;;;;;;4.65;2.30;;;;;;;-5.09;70.29;100801.44;1676389;83;21689;-37
2022/01/19 08:57:57;;;;;;;7.20;3.15;;;;;;;-4.97;69.41;100793.35;1678809;83;21348;-43
2022/01/19 09:13:21;;;;;;;6.62;2.60;;;;;;;-4.73;68.55;100795.82;1665869;83;21137;-36
2022/01/19 09:16:49;;;;;;;6.75;2.67;;;;;;;-4.58;68.47;100796.84;1656165;84;21887;-36
2022/01/19 09:24:26;;;;;;;6.00;3.75;;;;;;;-4.23;67.20;100772.42;1625664;86;21147;-44
2022/01/19 09:31:26;;;;;;;7.15;3.05;;;;;;;-4.23;66.27;100767.31;1685378;83;21594;-44
2022/01/19 09:37:26;;;;;;;5.10;2.70;;;;;;;-4.13;66.26;100754.72;1680777;83;22185;-43
2022/01/19 09:39:55;;;;;;;4.37;2.65;;;;;;;-4.12;65.96;100737.32;1677781;83;21046;-43
2022/01/19 09:42:22;;;;;;;7.15;3.30;;;;;;;-4.11;66.10;100743.84;1685704;83;21129;-42
2022/01/19 09:44:52;;;;;;;5.70;2.65;;;;;;;-4.05;66.43;100735.69;1680466;83;21673;-43
2022/01/19 09:47:19;;;;;;;5.08;2.40;;;;;;;-3.94;66.46;100737.27;1677911;83;21361;-44
2022/01/19 09:49:46;;;;;;;6.92;2.90;;;;;;;-3.82;65.55;100743.16;1685137;83;21062;-43
2022/01/19 09:52:13;;;;;;;7.05;2.67;;;;;;;-3.80;64.44;100731.34;1683889;83;21189;-44
2022/01/19 09:54:40;;;;;;;5.55;2.87;;;;;;;-3.82;64.26;100733.33;1680668;83;21041;-43
2022/01/19 09:57:07;;;;;;;3.70;2.27;;;;;;;-3.85;64.78;100729.28;1681022;83;21518;-43
2022/01/19 09:59:34;;;;;;;4.97;2.40;;;;;;;-3.84;64.37;100726.81;1679827;83;20988;-42
2022/01/19 10:02:09;;;;;;;6.42;3.05;;;;;;;-3.81;64.74;100730.86;1684368;83;21065;-44
2022/01/19 10:04:46;;;;;;;5.92;2.27;;;;;;;-3.73;63.75;100736.85;1682294;83;21050;-37
2022/01/19 10:07:25;;;;;;;9.25;3.45;;;;;;;-3.68;63.90;100738.03;1669496;83;21068;-39
2022/01/19 10:10:04;;;;;;;6.42;2.87;;;;;;;-3.61;64.17;100741.47;1668827;83;21430;-37
2022/01/19 10:18:30;;;;;;;6.85;2.87;;;;;;;-3.24;62.08;100727.64;1677025;83;21118;-42
2022/01/19 10:21:16;;;;;;;5.65;2.70;;;;;;;-3.01;61.79;100716.25;1676693;83;21602;-44
2022/01/19 10:24:00;;;;;;;6.33;2.55;;;;;;;-2.69;60.47;100719.84;1654341;83;21206;-38
2022/01/19 10:27:09;;;;;;;5.95;2.15;;;;;;;-2.38;59.46;100709.70;1677019;83;22056;-37
2022/01/19 10:30:11;;;;;;;4.25;2.85;;;;;;;-2.09;59.22;100709.21;1684405;83;21826;-44
2022/01/19 10:33:05;;;;;;;8.83;2.62;;;;;;;-1.79;57.45;100713.53;1677818;83;21081;-38
2022/01/19 10:36:21;;;;;;;6.78;2.52;;;;;;;-1.65;57.05;100721.58;1678911;83;21403;-38
2022/01/19 10:39:25;;;;;;;4.22;2.20;;;;;;;-1.59;56.06;100719.75;1674073;83;21018;-38
2022/01/19 10:42:36;;;;;;;11.10;3.25;;;;;;;-1.57;56.00;100724.55;1672585;83;21031;-43
2022/01/19 10:45:15;;;;;;;7.65;2.50;;;;;;;-1.39;55.68;100729.44;1672179;83;21026;-44
2022/01/19 10:47:58;;;;;;;3.87;2.70;;;;;;;-1.24;54.78;100723.36;1635417;85;21140;-44
2022/01/19 10:50:32;;;;;;;8.93;3.05;;;;;;;-1.12;54.72;100723.61;1675169;83;21430;-45
2022/01/19 10:53:01;;;;;;;6.67;3.20;;;;;;;-0.98;53.93;100720.91;1670150;83;21615;-38
2022/01/19 10:55:32;;;;;;;5.05;2.77;;;;;;;-0.88;53.14;100718.87;1664769;83;22253;-44
2022/01/19 10:58:01;;;;;;;4.55;2.42;;;;;;;-0.78;52.74;100704.83;1668269;83;21049;-44
2022/01/19 11:00:34;;;;;;;6.90;2.70;;;;;;;-0.68;52.32;100715.20;1668262;83;22152;-44
2022/01/19 11:05:19;;;;;;;5.12;2.98;;;;;;;-0.44;51.82;100703.99;1847972;74;24493;-44
2022/01/19 11:08:17;;;;;;;5.55;2.27;;;;;;;-0.30;51.68;100712.86;1832249;75;21560;-45
2022/01/19 11:11:16;;;;;;;4.42;2.70;;;;;;;-0.18;50.18;100710.42;1827869;76;21026;-37
2022/01/19 11:22:55;;;;;;;7.05;3.05;;;;;;;0.29;49.86;100703.75;1828227;77;21359;-38
2022/01/19 11:33:59;;;;;;;7.37;2.75;;;;;;;0.53;49.12;100688.16;1807887;77;21531;-44
2022/01/19 11:36:34;;;;;;;6.80;2.75;;;;;;;0.70;48.20;100694.09;1834458;77;20976;-44
2022/01/19 11:39:20;;;;;;;5.17;3.08;;;;;;;0.79;48.14;100692.32;1829845;77;20992;-45
2022/01/19 11:41:54;;;;;;;4.53;2.52;;;;;;;0.92;47.85;100686.02;1836353;77;21534;-44
2022/01/19 11:44:33;;;;;;;4.47;2.58;;;;;;;1.18;48.22;100688.06;1827697;77;20993;-43
2022/01/19 11:47:16;;;;;;;6.62;2.80;;;;;;;1.27;47.74;100678.14;1829359;77;21016;-38
2022/01/19 11:50:05;;;;;;;7.58;3.12;;;;;;;1.31;47.62;100675.30;1823371;77;21114;-38
2022/01/19 11:56:10;;;;;;;5.50;3.05;;;;;;;0.93;48.30;100669.36;1827986;76;20925;-45
2022/01/19 11:59:34;;;;;;;6.55;3.10;;;;;;;0.59;48.57;100680.24;1830212;76;21906;-45
2022/01/19 12:02:36;;;;;;;8.45;3.25;;;;;;;0.10;50.10;100671.08;1830865;76;21052;-45
2022/01/19 12:06:11;;;;;;;6.15;3.02;;;;;;;-0.30;50.95;100675.58;1787345;78;21609;-44
2022/01/19 12:10:21;;;;;;;6.72;2.45;;;;;;;-0.44;51.51;100673.14;1785188;78;20999;-44
2022/01/19 12:17:14;;;;;;;3.87;2.52;;;;;;;-0.30;51.71;100669.55;1784317;78;21668;-46
2022/01/19 12:27:12;;;;;;;7.80;2.95;;;;;;;0.32;49.68;100694.86;1786880;78;21013;-39
2022/01/19 12:30:07;;;;;;;7.70;2.83;;;;;;;0.16;49.74;100694.94;1755272;80;20993;-37
2022/01/19 12:32:51;;;;;;;6.37;2.70;;;;;;;-0.29;50.40;100694.45;1740059;80;21985;-42
2022/01/19 12:35:34;;;;;;;4.35;2.58;;;;;;;-0.52;51.40;100692.42;1755782;80;21379;-46
2022/01/19 12:38:07;;;;;;;6.12;2.65;;;;;;;-0.56;51.54;100693.57;1754174;80;21134;-44
2022/01/19 12:40:43;;;;;;;4.62;2.45;;;;;;;-0.52;51.61;100694.99;1752967;80;21538;-44
2022/01/19 12:43:29;;;;;;;7.92;2.87;;;;;;;-0.59;51.63;100699.83;1753986;79;21466;-44
2022/01/19 12:45:56;;;;;;;5.92;2.98;;;;;;;-0.75;52.19;100690.87;1753197;80;21378;-38
2022/01/19 12:53:20;;;;;;;3.70;2.52;;;;;;;-1.04;53.06;100692.30;1733120;82;21052;-43
2022/01/19 13:00:32;;;;;;;5.65;2.60;;;;;;;-0.91;52.66;100711.44;1729375;82;20992;-42
2022/01/19 13:03:55;;;;;;;4.15;2.58;;;;;;;-0.86;52.51;100713.84;1732524;81;21249;-36
2022/01/19 13:06:54;;;;;;;7.95;2.85;;;;;;;-0.83;52.56;100720.41;1746441;81;21048;-36
2022/01/19 13:09:27;;;;;;;5.37;2.60;;;;;;;-0.81;53.01;100707.27;1747466;81;21372;-36
2022/01/19 13:11:52;;;;;;;7.17;2.33;;;;;;;-0.81;52.89;100707.27;1716879;83;21071;-37
2022/01/19 13:14:17;;;;;;;5.42;2.50;;;;;;;-0.73;52.89;100710.22;1663454;84;21422;-37
